Gadsden, South Carolina
Current Conditions -  °F | °C
As of 8:58 AM on Sunday 25 Jan 2015 (Local Time) from KMMT Reporting Station
Scattered Clouds Scattered Clouds  
Wind Chill: 34°   Ceiling: Unl
Heat Index: 34°   Visibility: 10mi
Dew Point: 31°   Wind: 0mph
Humidity: 91%   Direction: NA
Pressure: 29.98"   Gusts: NA
Location:  33.85°N, 80.77°W
Report Text: KMMT 251358Z 00000KT 10SM SCT250 01/00 A2998 RMK AO2A SLP156 T00091004
Loading
Personal Weather Stations






























Interactive Weather Map New forecast layout! Learn more

10-Day Weather Forecast

Advertisements
Track Severe Weather on mobile